sensor_id;sensor_type;location;lat;lon;timestamp;P1;durP1;ratioP1;P2;durP2;ratioP2
27505;SDS011;14939;43.596;1.320;2023-08-24T06:34:10;12.52;;;6.22;;
27505;SDS011;14939;43.596;1.320;2023-08-24T06:36:36;13.57;;;6.25;;
27505;SDS011;14939;43.596;1.320;2023-08-24T06:39:02;11.75;;;6.20;;
27505;SDS011;14939;43.596;1.320;2023-08-24T06:41:32;11.32;;;6.05;;
27505;SDS011;14939;43.596;1.320;2023-08-24T06:44:01;12.40;;;6.75;;
27505;SDS011;14939;43.596;1.320;2023-08-24T06:46:27;11.27;;;6.65;;
27505;SDS011;14939;43.596;1.320;2023-08-24T06:48:53;11.68;;;6.18;;
27505;SDS011;14939;43.596;1.320;2023-08-24T06:51:18;9.40;;;6.22;;
27505;SDS011;14939;43.596;1.320;2023-08-24T06:53:44;10.88;;;6.18;;
27505;SDS011;14939;43.596;1.320;2023-08-24T06:56:12;13.20;;;6.93;;
27505;SDS011;14939;43.596;1.320;2023-08-24T06:58:39;13.65;;;6.28;;
27505;SDS011;14939;43.596;1.320;2023-08-24T07:01:05;9.30;;;6.07;;
27505;SDS011;14939;43.596;1.320;2023-08-24T07:03:31;11.00;;;6.03;;
27505;SDS011;14939;43.596;1.320;2023-08-24T07:06:00;10.07;;;6.10;;
27505;SDS011;14939;43.596;1.320;2023-08-24T07:08:25;11.77;;;6.38;;
27505;SDS011;14939;43.596;1.320;2023-08-24T07:10:51;10.00;;;5.45;;
27505;SDS011;14939;43.596;1.320;2023-08-24T07:13:17;12.07;;;5.57;;
27505;SDS011;14939;43.596;1.320;2023-08-24T07:15:42;10.57;;;5.53;;
27505;SDS011;14939;43.596;1.320;2023-08-24T07:18:10;10.38;;;5.28;;
27505;SDS011;14939;43.596;1.320;2023-08-24T07:20:36;9.60;;;5.38;;
27505;SDS011;14939;43.596;1.320;2023-08-24T07:23:02;10.57;;;5.35;;
27505;SDS011;14939;43.596;1.320;2023-08-24T07:25:28;11.52;;;5.55;;
27505;SDS011;14939;43.596;1.320;2023-08-24T07:27:54;8.48;;;5.45;;
27505;SDS011;14939;43.596;1.320;2023-08-24T07:30:24;12.52;;;5.18;;
27505;SDS011;14939;43.596;1.320;2023-08-24T07:32:51;11.88;;;4.90;;
27505;SDS011;14939;43.596;1.320;2023-08-24T07:35:17;10.65;;;5.65;;
27505;SDS011;14939;43.596;1.320;2023-08-24T07:37:43;9.70;;;5.22;;
27505;SDS011;14939;43.596;1.320;2023-08-24T07:40:08;9.95;;;5.20;;
27505;SDS011;14939;43.596;1.320;2023-08-24T07:42:48;10.25;;;4.95;;
27505;SDS011;14939;43.596;1.320;2023-08-24T07:45:21;12.52;;;5.13;;
27505;SDS011;14939;43.596;1.320;2023-08-24T07:47:50;9.60;;;5.35;;
27505;SDS011;14939;43.596;1.320;2023-08-24T07:50:16;7.60;;;4.68;;
27505;SDS011;14939;43.596;1.320;2023-08-24T07:52:42;10.80;;;5.07;;
27505;SDS011;14939;43.596;1.320;2023-08-24T07:55:08;9.45;;;4.63;;
27505;SDS011;14939;43.596;1.320;2023-08-24T07:57:35;8.82;;;4.95;;
27505;SDS011;14939;43.596;1.320;2023-08-24T08:00:02;9.40;;;5.22;;
27505;SDS011;14939;43.596;1.320;2023-08-24T08:02:29;7.38;;;4.55;;
27505;SDS011;14939;43.596;1.320;2023-08-24T08:04:57;9.38;;;4.65;;
27505;SDS011;14939;43.596;1.320;2023-08-24T08:07:24;9.52;;;4.85;;
27505;SDS011;14939;43.596;1.320;2023-08-24T08:09:50;8.05;;;4.70;;
27505;SDS011;14939;43.596;1.320;2023-08-24T08:12:16;13.05;;;4.90;;
27505;SDS011;14939;43.596;1.320;2023-08-24T08:14:41;8.82;;;4.80;;
27505;SDS011;14939;43.596;1.320;2023-08-24T08:17:07;9.80;;;4.78;;
27505;SDS011;14939;43.596;1.320;2023-08-24T08:19:33;7.13;;;4.55;;
27505;SDS011;14939;43.596;1.320;2023-08-24T08:22:00;13.27;;;5.40;;
27505;SDS011;14939;43.596;1.320;2023-08-24T08:24:26;8.15;;;4.93;;
27505;SDS011;14939;43.596;1.320;2023-08-24T08:26:52;6.80;;;4.75;;
27505;SDS011;14939;43.596;1.320;2023-08-24T08:29:18;9.52;;;4.70;;
27505;SDS011;14939;43.596;1.320;2023-08-24T08:31:43;7.25;;;4.20;;
27505;SDS011;14939;43.596;1.320;2023-08-24T08:34:09;10.75;;;4.97;;
27505;SDS011;14939;43.596;1.320;2023-08-24T08:36:35;8.85;;;4.60;;
27505;SDS011;14939;43.596;1.320;2023-08-24T08:39:00;9.93;;;4.80;;
27505;SDS011;14939;43.596;1.320;2023-08-24T08:41:30;8.55;;;4.40;;
27505;SDS011;14939;43.596;1.320;2023-08-24T08:43:59;5.85;;;4.47;;
27505;SDS011;14939;43.596;1.320;2023-08-24T08:46:29;9.38;;;4.70;;
27505;SDS011;14939;43.596;1.320;2023-08-24T08:48:56;8.93;;;4.63;;
27505;SDS011;14939;43.596;1.320;2023-08-24T08:51:23;8.43;;;4.55;;
27505;SDS011;14939;43.596;1.320;2023-08-24T08:53:49;10.73;;;4.28;;
27505;SDS011;14939;43.596;1.320;2023-08-24T08:56:15;10.90;;;4.80;;
27505;SDS011;14939;43.596;1.320;2023-08-24T08:58:41;11.98;;;4.53;;
27505;SDS011;14939;43.596;1.320;2023-08-24T09:01:08;10.00;;;4.55;;
27505;SDS011;14939;43.596;1.320;2023-08-24T09:03:34;12.98;;;4.88;;
27505;SDS011;14939;43.596;1.320;2023-08-24T09:06:00;11.07;;;5.03;;
27505;SDS011;14939;43.596;1.320;2023-08-24T09:08:26;7.63;;;4.50;;
27505;SDS011;14939;43.596;1.320;2023-08-24T09:10:53;11.38;;;4.60;;
27505;SDS011;14939;43.596;1.320;2023-08-24T09:13:20;5.75;;;4.50;;
27505;SDS011;14939;43.596;1.320;2023-08-24T09:15:46;8.32;;;4.88;;
27505;SDS011;14939;43.596;1.320;2023-08-24T09:18:12;10.50;;;4.72;;
27505;SDS011;14939;43.596;1.320;2023-08-24T09:20:37;9.13;;;4.50;;
27505;SDS011;14939;43.596;1.320;2023-08-24T09:23:03;9.65;;;5.00;;
27505;SDS011;14939;43.596;1.320;2023-08-24T09:25:29;8.50;;;4.63;;
27505;SDS011;14939;43.596;1.320;2023-08-24T09:28:01;7.80;;;4.80;;
27505;SDS011;14939;43.596;1.320;2023-08-24T09:30:36;8.80;;;4.65;;
27505;SDS011;14939;43.596;1.320;2023-08-24T09:33:09;7.07;;;5.03;;
27505;SDS011;14939;43.596;1.320;2023-08-24T09:35:36;9.00;;;4.88;;
27505;SDS011;14939;43.596;1.320;2023-08-24T09:38:17;8.25;;;4.63;;
27505;SDS011;14939;43.596;1.320;2023-08-24T09:40:51;10.48;;;5.07;;
27505;SDS011;14939;43.596;1.320;2023-08-24T09:43:18;10.05;;;4.70;;
27505;SDS011;14939;43.596;1.320;2023-08-24T09:45:53;8.32;;;4.90;;
27505;SDS011;14939;43.596;1.320;2023-08-24T09:48:20;8.68;;;4.70;;
27505;SDS011;14939;43.596;1.320;2023-08-24T09:50:47;9.50;;;4.40;;
27505;SDS011;14939;43.596;1.320;2023-08-24T09:53:22;10.27;;;4.65;;
27505;SDS011;14939;43.596;1.320;2023-08-24T09:58:26;7.95;;;4.38;;
27505;SDS011;14939;43.596;1.320;2023-08-24T10:00:53;9.10;;;4.35;;
27505;SDS011;14939;43.596;1.320;2023-08-24T10:03:20;10.30;;;4.40;;
27505;SDS011;14939;43.596;1.320;2023-08-24T10:05:50;11.40;;;5.05;;
27505;SDS011;14939;43.596;1.320;2023-08-24T10:08:34;10.88;;;4.97;;
27505;SDS011;14939;43.596;1.320;2023-08-24T10:11:05;9.80;;;5.30;;
27505;SDS011;14939;43.596;1.320;2023-08-24T10:16:09;9.10;;;5.30;;
27505;SDS011;14939;43.596;1.320;2023-08-24T10:18:38;7.00;;;4.85;;
27505;SDS011;14939;43.596;1.320;2023-08-24T10:21:05;9.98;;;4.72;;
27505;SDS011;14939;43.596;1.320;2023-08-24T10:23:32;11.80;;;4.60;;
27505;SDS011;14939;43.596;1.320;2023-08-24T10:26:00;10.10;;;5.00;;
27505;SDS011;14939;43.596;1.320;2023-08-24T10:28:28;7.35;;;5.22;;
27505;SDS011;14939;43.596;1.320;2023-08-24T10:30:58;10.10;;;4.80;;
27505;SDS011;14939;43.596;1.320;2023-08-24T10:33:25;9.73;;;4.78;;
27505;SDS011;14939;43.596;1.320;2023-08-24T10:35:52;10.73;;;5.30;;
27505;SDS011;14939;43.596;1.320;2023-08-24T10:38:22;6.88;;;4.70;;
27505;SDS011;14939;43.596;1.320;2023-08-24T10:40:50;7.35;;;5.15;;
27505;SDS011;14939;43.596;1.320;2023-08-24T10:43:16;7.72;;;4.60;;
27505;SDS011;14939;43.596;1.320;2023-08-24T10:45:58;8.85;;;4.40;;
27505;SDS011;14939;43.596;1.320;2023-08-24T10:48:25;9.15;;;4.72;;
27505;SDS011;14939;43.596;1.320;2023-08-24T10:54:06;10.63;;;5.22;;
27505;SDS011;14939;43.596;1.320;2023-08-24T10:56:36;8.88;;;5.22;;
27505;SDS011;14939;43.596;1.320;2023-08-24T11:01:54;9.50;;;4.22;;
27505;SDS011;14939;43.596;1.320;2023-08-24T11:04:21;9.60;;;4.82;;
27505;SDS011;14939;43.596;1.320;2023-08-24T11:06:59;11.57;;;4.88;;
27505;SDS011;14939;43.596;1.320;2023-08-24T11:09:44;9.10;;;4.55;;
27505;SDS011;14939;43.596;1.320;2023-08-24T11:12:14;8.20;;;4.70;;
27505;SDS011;14939;43.596;1.320;2023-08-24T11:14:52;9.65;;;4.95;;
27505;SDS011;14939;43.596;1.320;2023-08-24T11:17:24;8.82;;;4.70;;
27505;SDS011;14939;43.596;1.320;2023-08-24T11:19:54;8.10;;;4.57;;
27505;SDS011;14939;43.596;1.320;2023-08-24T11:22:20;9.65;;;4.45;;
27505;SDS011;14939;43.596;1.320;2023-08-24T11:24:46;10.02;;;4.80;;
27505;SDS011;14939;43.596;1.320;2023-08-24T11:27:12;7.25;;;4.80;;
27505;SDS011;14939;43.596;1.320;2023-08-24T11:29:38;9.20;;;4.35;;
27505;SDS011;14939;43.596;1.320;2023-08-24T11:32:04;11.35;;;4.72;;
27505;SDS011;14939;43.596;1.320;2023-08-24T11:34:30;12.70;;;4.35;;
27505;SDS011;14939;43.596;1.320;2023-08-24T11:36:56;7.82;;;4.85;;
27505;SDS011;14939;43.596;1.320;2023-08-24T11:39:22;10.15;;;5.07;;
27505;SDS011;14939;43.596;1.320;2023-08-24T11:42:05;9.10;;;4.75;;
27505;SDS011;14939;43.596;1.320;2023-08-24T11:44:46;7.88;;;4.43;;
27505;SDS011;14939;43.596;1.320;2023-08-24T11:47:13;8.52;;;4.85;;
27505;SDS011;14939;43.596;1.320;2023-08-24T11:49:39;9.50;;;4.72;;
27505;SDS011;14939;43.596;1.320;2023-08-24T11:52:06;5.65;;;4.43;;
27505;SDS011;14939;43.596;1.320;2023-08-24T11:54:33;8.15;;;5.18;;
27505;SDS011;14939;43.596;1.320;2023-08-24T11:56:58;7.78;;;4.65;;
27505;SDS011;14939;43.596;1.320;2023-08-24T11:59:24;6.82;;;4.80;;
27505;SDS011;14939;43.596;1.320;2023-08-24T12:01:51;11.50;;;5.07;;
27505;SDS011;14939;43.596;1.320;2023-08-24T12:04:18;12.70;;;5.38;;
27505;SDS011;14939;43.596;1.320;2023-08-24T12:06:44;7.18;;;4.90;;
27505;SDS011;14939;43.596;1.320;2023-08-24T12:09:18;8.23;;;5.25;;
27505;SDS011;14939;43.596;1.320;2023-08-24T12:11:44;6.75;;;5.32;;
27505;SDS011;14939;43.596;1.320;2023-08-24T12:14:16;8.23;;;4.82;;
27505;SDS011;14939;43.596;1.320;2023-08-24T12:16:42;8.10;;;4.47;;
27505;SDS011;14939;43.596;1.320;2023-08-24T12:19:08;10.80;;;4.85;;
27505;SDS011;14939;43.596;1.320;2023-08-24T12:21:34;8.68;;;4.80;;
27505;SDS011;14939;43.596;1.320;2023-08-24T12:26:26;8.77;;;4.63;;
27505;SDS011;14939;43.596;1.320;2023-08-24T12:28:52;6.63;;;4.55;;
27505;SDS011;14939;43.596;1.320;2023-08-24T12:31:18;6.40;;;4.85;;
27505;SDS011;14939;43.596;1.320;2023-08-24T12:33:45;11.23;;;4.75;;
27505;SDS011;14939;43.596;1.320;2023-08-24T12:36:22;8.88;;;4.45;;
27505;SDS011;14939;43.596;1.320;2023-08-24T12:38:47;13.32;;;4.95;;
27505;SDS011;14939;43.596;1.320;2023-08-24T12:41:13;10.10;;;4.70;;
27505;SDS011;14939;43.596;1.320;2023-08-24T12:43:38;6.93;;;4.93;;
27505;SDS011;14939;43.596;1.320;2023-08-24T12:46:04;8.32;;;5.03;;
27505;SDS011;14939;43.596;1.320;2023-08-24T12:48:30;8.15;;;4.80;;
27505;SDS011;14939;43.596;1.320;2023-08-24T12:50:55;8.57;;;4.60;;
27505;SDS011;14939;43.596;1.320;2023-08-24T12:53:21;12.27;;;4.72;;
27505;SDS011;14939;43.596;1.320;2023-08-24T12:55:47;7.05;;;4.40;;
27505;SDS011;14939;43.596;1.320;2023-08-24T12:58:13;7.82;;;4.53;;
27505;SDS011;14939;43.596;1.320;2023-08-24T13:00:38;11.38;;;5.00;;
27505;SDS011;14939;43.596;1.320;2023-08-24T13:03:04;7.85;;;4.50;;
27505;SDS011;14939;43.596;1.320;2023-08-24T13:05:30;9.75;;;4.55;;
27505;SDS011;14939;43.596;1.320;2023-08-24T13:07:55;7.93;;;4.70;;
27505;SDS011;14939;43.596;1.320;2023-08-24T13:10:22;6.95;;;4.95;;
27505;SDS011;14939;43.596;1.320;2023-08-24T13:12:47;9.43;;;4.50;;
27505;SDS011;14939;43.596;1.320;2023-08-24T13:15:13;7.07;;;4.50;;
27505;SDS011;14939;43.596;1.320;2023-08-24T13:17:40;7.22;;;4.40;;
27505;SDS011;14939;43.596;1.320;2023-08-24T13:20:06;7.18;;;4.28;;
27505;SDS011;14939;43.596;1.320;2023-08-24T13:22:32;8.18;;;3.90;;
27505;SDS011;14939;43.596;1.320;2023-08-24T13:24:58;10.38;;;4.45;;
27505;SDS011;14939;43.596;1.320;2023-08-24T13:27:24;9.93;;;4.45;;
27505;SDS011;14939;43.596;1.320;2023-08-24T13:29:50;9.55;;;4.32;;
27505;SDS011;14939;43.596;1.320;2023-08-24T13:32:15;11.43;;;4.50;;
27505;SDS011;14939;43.596;1.320;2023-08-24T13:34:41;7.00;;;4.57;;
27505;SDS011;14939;43.596;1.320;2023-08-24T13:37:07;7.13;;;4.32;;
27505;SDS011;14939;43.596;1.320;2023-08-24T13:39:32;7.20;;;4.35;;
27505;SDS011;14939;43.596;1.320;2023-08-24T13:41:58;8.98;;;4.43;;
27505;SDS011;14939;43.596;1.320;2023-08-24T13:44:24;7.90;;;4.30;;
27505;SDS011;14939;43.596;1.320;2023-08-24T13:46:50;8.25;;;4.10;;
27505;SDS011;14939;43.596;1.320;2023-08-24T13:49:20;6.20;;;3.72;;
27505;SDS011;14939;43.596;1.320;2023-08-24T13:51:45;10.02;;;4.03;;
27505;SDS011;14939;43.596;1.320;2023-08-24T13:54:15;6.38;;;4.10;;
27505;SDS011;14939;43.596;1.320;2023-08-24T13:56:45;6.85;;;3.90;;
27505;SDS011;14939;43.596;1.320;2023-08-24T13:59:12;8.23;;;4.15;;
27505;SDS011;14939;43.596;1.320;2023-08-24T14:01:38;6.15;;;4.00;;
27505;SDS011;14939;43.596;1.320;2023-08-24T14:04:04;8.27;;;3.92;;
27505;SDS011;14939;43.596;1.320;2023-08-24T14:06:30;6.45;;;4.00;;
27505;SDS011;14939;43.596;1.320;2023-08-24T14:08:57;7.93;;;3.67;;
27505;SDS011;14939;43.596;1.320;2023-08-24T14:11:23;8.27;;;3.80;;
27505;SDS011;14939;43.596;1.320;2023-08-24T14:13:49;8.27;;;3.20;;
27505;SDS011;14939;43.596;1.320;2023-08-24T14:16:15;11.73;;;3.95;;
27505;SDS011;14939;43.596;1.320;2023-08-24T14:18:42;7.40;;;4.05;;
27505;SDS011;14939;43.596;1.320;2023-08-24T14:21:07;6.93;;;3.95;;
27505;SDS011;14939;43.596;1.320;2023-08-24T14:23:35;6.10;;;3.40;;
27505;SDS011;14939;43.596;1.320;2023-08-24T14:26:01;6.38;;;3.63;;
27505;SDS011;14939;43.596;1.320;2023-08-24T14:28:26;6.57;;;3.60;;
27505;SDS011;14939;43.596;1.320;2023-08-24T14:31:26;6.65;;;3.60;;
27505;SDS011;14939;43.596;1.320;2023-08-24T14:33:54;7.10;;;3.67;;
27505;SDS011;14939;43.596;1.320;2023-08-24T14:36:20;7.25;;;3.92;;
27505;SDS011;14939;43.596;1.320;2023-08-24T14:38:46;6.78;;;3.60;;
27505;SDS011;14939;43.596;1.320;2023-08-24T14:41:13;8.45;;;3.45;;
27505;SDS011;14939;43.596;1.320;2023-08-24T14:43:39;9.20;;;3.83;;
27505;SDS011;14939;43.596;1.320;2023-08-24T14:46:05;7.47;;;4.00;;
27505;SDS011;14939;43.596;1.320;2023-08-24T14:48:31;7.28;;;3.90;;
27505;SDS011;14939;43.596;1.320;2023-08-24T14:50:57;11.18;;;3.90;;
27505;SDS011;14939;43.596;1.320;2023-08-24T14:53:23;9.05;;;3.80;;
27505;SDS011;14939;43.596;1.320;2023-08-24T14:55:49;7.28;;;3.90;;
27505;SDS011;14939;43.596;1.320;2023-08-24T14:58:15;7.30;;;3.65;;
27505;SDS011;14939;43.596;1.320;2023-08-24T15:00:41;8.23;;;4.15;;
27505;SDS011;14939;43.596;1.320;2023-08-24T15:03:07;5.75;;;3.50;;
27505;SDS011;14939;43.596;1.320;2023-08-24T15:05:43;7.20;;;3.80;;
27505;SDS011;14939;43.596;1.320;2023-08-24T15:08:10;7.18;;;3.50;;
27505;SDS011;14939;43.596;1.320;2023-08-24T15:10:37;5.53;;;3.10;;
27505;SDS011;14939;43.596;1.320;2023-08-24T15:13:03;7.03;;;3.60;;
27505;SDS011;14939;43.596;1.320;2023-08-24T15:15:30;7.72;;;3.45;;
27505;SDS011;14939;43.596;1.320;2023-08-24T15:17:56;6.32;;;3.65;;
27505;SDS011;14939;43.596;1.320;2023-08-24T15:20:21;14.32;;;3.70;;
27505;SDS011;14939;43.596;1.320;2023-08-24T15:22:48;6.47;;;3.53;;
27505;SDS011;14939;43.596;1.320;2023-08-24T15:25:13;4.63;;;3.25;;
27505;SDS011;14939;43.596;1.320;2023-08-24T15:27:39;5.60;;;3.28;;
27505;SDS011;14939;43.596;1.320;2023-08-24T15:30:05;6.47;;;3.15;;
27505;SDS011;14939;43.596;1.320;2023-08-24T15:32:31;6.68;;;3.40;;
27505;SDS011;14939;43.596;1.320;2023-08-24T15:34:57;7.97;;;3.63;;
27505;SDS011;14939;43.596;1.320;2023-08-24T15:37:24;6.43;;;3.80;;
27505;SDS011;14939;43.596;1.320;2023-08-24T15:39:50;9.27;;;3.60;;
27505;SDS011;14939;43.596;1.320;2023-08-24T15:42:15;6.43;;;3.65;;
27505;SDS011;14939;43.596;1.320;2023-08-24T15:44:41;6.43;;;3.42;;
27505;SDS011;14939;43.596;1.320;2023-08-24T15:47:08;7.35;;;3.33;;
27505;SDS011;14939;43.596;1.320;2023-08-24T15:49:34;5.53;;;3.17;;
27505;SDS011;14939;43.596;1.320;2023-08-24T15:51:59;4.75;;;3.22;;
27505;SDS011;14939;43.596;1.320;2023-08-24T15:54:25;6.90;;;3.42;;
27505;SDS011;14939;43.596;1.320;2023-08-24T15:56:51;7.72;;;3.22;;
27505;SDS011;14939;43.596;1.320;2023-08-24T15:59:18;5.85;;;3.10;;
27505;SDS011;14939;43.596;1.320;2023-08-24T16:01:45;8.15;;;3.63;;
27505;SDS011;14939;43.596;1.320;2023-08-24T16:04:11;7.07;;;3.22;;
27505;SDS011;14939;43.596;1.320;2023-08-24T16:06:38;8.18;;;3.17;;
27505;SDS011;14939;43.596;1.320;2023-08-24T16:09:04;5.65;;;3.30;;
27505;SDS011;14939;43.596;1.320;2023-08-24T16:11:30;9.63;;;2.97;;
27505;SDS011;14939;43.596;1.320;2023-08-24T16:13:55;6.28;;;2.95;;
27505;SDS011;14939;43.596;1.320;2023-08-24T16:16:22;8.75;;;3.30;;
27505;SDS011;14939;43.596;1.320;2023-08-24T16:18:49;6.85;;;2.95;;
27505;SDS011;14939;43.596;1.320;2023-08-24T16:21:14;6.88;;;3.30;;
27505;SDS011;14939;43.596;1.320;2023-08-24T16:23:40;3.88;;;2.80;;
27505;SDS011;14939;43.596;1.320;2023-08-24T16:26:07;6.05;;;2.75;;
27505;SDS011;14939;43.596;1.320;2023-08-24T16:28:33;6.97;;;2.75;;
27505;SDS011;14939;43.596;1.320;2023-08-24T16:30:59;6.93;;;2.97;;
27505;SDS011;14939;43.596;1.320;2023-08-24T16:33:25;10.38;;;3.30;;
27505;SDS011;14939;43.596;1.320;2023-08-24T16:35:50;7.18;;;3.10;;
27505;SDS011;14939;43.596;1.320;2023-08-24T16:38:16;5.88;;;2.90;;
27505;SDS011;14939;43.596;1.320;2023-08-24T16:40:42;7.00;;;3.10;;
27505;SDS011;14939;43.596;1.320;2023-08-24T16:43:08;3.90;;;2.70;;
27505;SDS011;14939;43.596;1.320;2023-08-24T16:45:34;5.45;;;2.72;;
27505;SDS011;14939;43.596;1.320;2023-08-24T16:48:01;17.73;;;3.33;;
27505;SDS011;14939;43.596;1.320;2023-08-24T16:50:27;6.05;;;2.78;;
27505;SDS011;14939;43.596;1.320;2023-08-24T16:52:52;30.92;;;4.20;;
27505;SDS011;14939;43.596;1.320;2023-08-24T16:55:18;4.72;;;2.70;;
27505;SDS011;14939;43.596;1.320;2023-08-24T16:57:44;7.75;;;2.88;;
27505;SDS011;14939;43.596;1.320;2023-08-24T17:00:10;9.60;;;3.25;;
27505;SDS011;14939;43.596;1.320;2023-08-24T17:02:38;4.63;;;2.80;;
27505;SDS011;14939;43.596;1.320;2023-08-24T17:05:04;6.93;;;2.97;;
27505;SDS011;14939;43.596;1.320;2023-08-24T17:07:30;5.47;;;2.88;;
27505;SDS011;14939;43.596;1.320;2023-08-24T17:09:55;9.93;;;3.50;;
27505;SDS011;14939;43.596;1.320;2023-08-24T17:12:21;7.40;;;3.08;;
27505;SDS011;14939;43.596;1.320;2023-08-24T17:14:47;4.18;;;2.80;;
27505;SDS011;14939;43.596;1.320;2023-08-24T17:17:12;5.95;;;3.17;;
27505;SDS011;14939;43.596;1.320;2023-08-24T17:19:38;4.90;;;3.10;;
27505;SDS011;14939;43.596;1.320;2023-08-24T17:22:04;8.95;;;3.38;;
27505;SDS011;14939;43.596;1.320;2023-08-24T17:24:29;6.70;;;3.40;;
27505;SDS011;14939;43.596;1.320;2023-08-24T17:26:55;6.13;;;3.15;;
27505;SDS011;14939;43.596;1.320;2023-08-24T17:29:21;10.27;;;3.60;;
27505;SDS011;14939;43.596;1.320;2023-08-24T17:31:47;4.38;;;3.10;;
27505;SDS011;14939;43.596;1.320;2023-08-24T17:34:13;6.72;;;3.58;;
27505;SDS011;14939;43.596;1.320;2023-08-24T17:36:38;5.88;;;3.17;;
27505;SDS011;14939;43.596;1.320;2023-08-24T17:39:04;5.15;;;3.33;;
27505;SDS011;14939;43.596;1.320;2023-08-24T17:41:32;5.38;;;3.20;;
27505;SDS011;14939;43.596;1.320;2023-08-24T17:43:58;4.22;;;3.30;;
27505;SDS011;14939;43.596;1.320;2023-08-24T17:46:24;6.90;;;3.10;;
27505;SDS011;14939;43.596;1.320;2023-08-24T17:48:51;4.32;;;3.00;;
27505;SDS011;14939;43.596;1.320;2023-08-24T17:51:17;7.13;;;3.25;;
27505;SDS011;14939;43.596;1.320;2023-08-24T17:53:43;6.82;;;3.13;;
27505;SDS011;14939;43.596;1.320;2023-08-24T17:56:09;4.53;;;3.10;;
27505;SDS011;14939;43.596;1.320;2023-08-24T17:58:35;7.57;;;3.00;;
27505;SDS011;14939;43.596;1.320;2023-08-24T18:01:00;8.90;;;3.22;;
27505;SDS011;14939;43.596;1.320;2023-08-24T18:03:26;4.38;;;3.17;;
27505;SDS011;14939;43.596;1.320;2023-08-24T18:05:52;4.78;;;3.17;;
27505;SDS011;14939;43.596;1.320;2023-08-24T18:08:20;6.68;;;3.30;;
27505;SDS011;14939;43.596;1.320;2023-08-24T18:10:45;6.07;;;3.20;;
27505;SDS011;14939;43.596;1.320;2023-08-24T18:13:11;8.35;;;3.55;;
27505;SDS011;14939;43.596;1.320;2023-08-24T18:15:37;8.18;;;3.40;;
27505;SDS011;14939;43.596;1.320;2023-08-24T18:18:04;6.28;;;3.35;;
27505;SDS011;14939;43.596;1.320;2023-08-24T18:20:30;5.47;;;3.17;;
27505;SDS011;14939;43.596;1.320;2023-08-24T18:22:57;6.32;;;3.53;;
27505;SDS011;14939;43.596;1.320;2023-08-24T18:25:23;4.72;;;3.20;;
27505;SDS011;14939;43.596;1.320;2023-08-24T18:27:50;4.85;;;3.13;;
27505;SDS011;14939;43.596;1.320;2023-08-24T18:30:16;6.05;;;3.10;;
27505;SDS011;14939;43.596;1.320;2023-08-24T18:32:42;3.95;;;3.20;;
27505;SDS011;14939;43.596;1.320;2023-08-24T18:35:08;3.60;;;3.30;;
27505;SDS011;14939;43.596;1.320;2023-08-24T18:37:34;5.90;;;3.10;;
27505;SDS011;14939;43.596;1.320;2023-08-24T18:40:00;5.38;;;3.17;;
27505;SDS011;14939;43.596;1.320;2023-08-24T18:42:27;5.80;;;3.00;;
27505;SDS011;14939;43.596;1.320;2023-08-24T18:44:53;6.13;;;3.35;;
27505;SDS011;14939;43.596;1.320;2023-08-24T18:47:18;5.88;;;3.10;;
27505;SDS011;14939;43.596;1.320;2023-08-24T18:49:45;4.95;;;3.28;;
27505;SDS011;14939;43.596;1.320;2023-08-24T18:52:10;5.00;;;3.40;;
27505;SDS011;14939;43.596;1.320;2023-08-24T18:54:37;5.43;;;3.50;;
27505;SDS011;14939;43.596;1.320;2023-08-24T18:57:03;5.97;;;3.33;;
27505;SDS011;14939;43.596;1.320;2023-08-24T18:59:29;6.03;;;3.10;;
27505;SDS011;14939;43.596;1.320;2023-08-24T19:01:54;6.07;;;3.10;;
27505;SDS011;14939;43.596;1.320;2023-08-24T19:04:20;4.18;;;3.47;;
27505;SDS011;14939;43.596;1.320;2023-08-24T19:06:46;5.25;;;3.05;;
27505;SDS011;14939;43.596;1.320;2023-08-24T19:09:11;9.65;;;3.70;;
27505;SDS011;14939;43.596;1.320;2023-08-24T19:11:37;5.28;;;3.90;;
27505;SDS011;14939;43.596;1.320;2023-08-24T19:14:04;5.38;;;3.30;;
27505;SDS011;14939;43.596;1.320;2023-08-24T19:16:30;6.32;;;3.80;;
27505;SDS011;14939;43.596;1.320;2023-08-24T19:18:56;8.32;;;3.80;;
27505;SDS011;14939;43.596;1.320;2023-08-24T19:21:22;4.70;;;3.28;;
27505;SDS011;14939;43.596;1.320;2023-08-24T19:23:51;5.90;;;3.35;;
27505;SDS011;14939;43.596;1.320;2023-08-24T19:26:16;3.85;;;3.45;;
27505;SDS011;14939;43.596;1.320;2023-08-24T19:28:42;3.65;;;3.15;;
27505;SDS011;14939;43.596;1.320;2023-08-24T19:31:10;5.45;;;3.35;;
27505;SDS011;14939;43.596;1.320;2023-08-24T19:33:36;5.85;;;3.55;;
27505;SDS011;14939;43.596;1.320;2023-08-24T19:36:02;6.03;;;3.38;;
27505;SDS011;14939;43.596;1.320;2023-08-24T19:38:28;6.28;;;3.65;;
27505;SDS011;14939;43.596;1.320;2023-08-24T19:40:54;5.38;;;3.60;;
27505;SDS011;14939;43.596;1.320;2023-08-24T19:43:19;4.30;;;3.60;;
27505;SDS011;14939;43.596;1.320;2023-08-24T19:45:45;6.43;;;3.50;;
27505;SDS011;14939;43.596;1.320;2023-08-24T19:48:11;4.80;;;3.28;;
27505;SDS011;14939;43.596;1.320;2023-08-24T19:50:36;5.60;;;3.60;;
27505;SDS011;14939;43.596;1.320;2023-08-24T19:53:04;7.03;;;3.30;;
27505;SDS011;14939;43.596;1.320;2023-08-24T19:55:30;5.65;;;3.50;;
27505;SDS011;14939;43.596;1.320;2023-08-24T19:57:56;4.25;;;3.75;;
27505;SDS011;14939;43.596;1.320;2023-08-24T20:00:21;7.20;;;3.95;;
27505;SDS011;14939;43.596;1.320;2023-08-24T20:02:47;6.50;;;3.72;;
27505;SDS011;14939;43.596;1.320;2023-08-24T20:05:15;6.95;;;3.83;;
27505;SDS011;14939;43.596;1.320;2023-08-24T20:07:41;7.38;;;3.80;;
27505;SDS011;14939;43.596;1.320;2023-08-24T20:10:17;7.13;;;3.58;;
27505;SDS011;14939;43.596;1.320;2023-08-24T20:12:44;10.32;;;3.90;;
27505;SDS011;14939;43.596;1.320;2023-08-24T20:15:10;8.07;;;4.15;;
27505;SDS011;14939;43.596;1.320;2023-08-24T20:17:43;6.45;;;4.05;;
27505;SDS011;14939;43.596;1.320;2023-08-24T20:20:11;4.95;;;3.88;;
27505;SDS011;14939;43.596;1.320;2023-08-24T20:22:42;5.60;;;3.90;;
27505;SDS011;14939;43.596;1.320;2023-08-24T20:25:09;7.57;;;3.95;;
27505;SDS011;14939;43.596;1.320;2023-08-24T20:27:35;6.90;;;4.00;;
27505;SDS011;14939;43.596;1.320;2023-08-24T20:30:02;4.35;;;3.58;;
27505;SDS011;14939;43.596;1.320;2023-08-24T20:32:29;6.13;;;3.80;;
27505;SDS011;14939;43.596;1.320;2023-08-24T20:34:54;5.53;;;4.30;;
27505;SDS011;14939;43.596;1.320;2023-08-24T20:37:21;5.03;;;4.00;;
27505;SDS011;14939;43.596;1.320;2023-08-24T20:39:48;7.05;;;4.30;;
27505;SDS011;14939;43.596;1.320;2023-08-24T20:42:14;9.60;;;4.00;;
27505;SDS011;14939;43.596;1.320;2023-08-24T20:44:52;7.97;;;4.30;;
27505;SDS011;14939;43.596;1.320;2023-08-24T20:47:19;7.97;;;4.10;;
27505;SDS011;14939;43.596;1.320;2023-08-24T20:49:45;8.07;;;4.25;;
27505;SDS011;14939;43.596;1.320;2023-08-24T20:52:17;6.50;;;4.30;;
27505;SDS011;14939;43.596;1.320;2023-08-24T20:54:44;7.57;;;4.00;;
27505;SDS011;14939;43.596;1.320;2023-08-24T20:57:11;7.53;;;4.28;;
27505;SDS011;14939;43.596;1.320;2023-08-24T20:59:37;7.65;;;4.45;;
27505;SDS011;14939;43.596;1.320;2023-08-24T21:02:03;6.93;;;4.43;;
27505;SDS011;14939;43.596;1.320;2023-08-24T21:04:28;6.93;;;4.40;;
27505;SDS011;14939;43.596;1.320;2023-08-24T21:06:57;6.82;;;4.18;;
27505;SDS011;14939;43.596;1.320;2023-08-24T21:09:23;10.38;;;4.60;;
27505;SDS011;14939;43.596;1.320;2023-08-24T21:11:49;8.23;;;4.75;;
27505;SDS011;14939;43.596;1.320;2023-08-24T21:14:15;7.82;;;5.20;;
27505;SDS011;14939;43.596;1.320;2023-08-24T21:16:41;9.05;;;5.13;;
27505;SDS011;14939;43.596;1.320;2023-08-24T21:19:06;8.35;;;4.88;;
27505;SDS011;14939;43.596;1.320;2023-08-24T21:21:32;6.68;;;4.82;;
27505;SDS011;14939;43.596;1.320;2023-08-24T21:23:58;6.28;;;4.40;;
27505;SDS011;14939;43.596;1.320;2023-08-24T21:26:23;9.02;;;4.65;;
27505;SDS011;14939;43.596;1.320;2023-08-24T21:28:50;6.75;;;4.20;;
27505;SDS011;14939;43.596;1.320;2023-08-24T21:31:16;7.65;;;4.25;;